FW1312 Weather Reports


Display with metric or nautical units.
time (UTC)temp
F
wind
direction
speed
MPH
gust
MPH
rain 1hr
in
rain 24hr
in
rain mn
in
humidity
%
barometer
mb
20240712120136 72 173 0.0 2.0 0.00 0.00 0.00 83 1017.0
20240712114535 72 173 0.0 0.0 0.00 0.00 0.00 82 1016.7
20240712113021 72 173 0.0 2.0 0.00 0.00 0.00 82 1016.5
20240712111545 72 173 1.0 2.0 0.00 0.00 0.00 82 1016.4
20240712110019 72 173 0.0 0.0 0.00 0.00 0.00 81 1016.3
20240712104545 72 173 0.0 2.0 0.00 0.00 0.00 81 1016.2
20240712103020 73 173 0.0 0.0 0.00 0.00 0.00 81 1016.1
20240712101509 73 173 0.0 0.0 0.00 0.00 0.00 81 1016.1
20240712100108 73 173 0.0 2.0 0.00 0.00 0.00 80 1015.9
20240712094514 73 173 0.0 3.0 0.00 0.00 0.00 80 1015.7
20240712093058 73 173 1.0 3.0 0.00 0.00 0.00 80 1015.7
20240712091534 73 173 0.0 2.0 0.00 0.00 0.00 79 1015.6
20240712090051 73 173 1.0 3.0 0.00 0.00 0.00 79 1015.4
20240712084528 74 180 1.0 3.0 0.00 0.00 0.00 78 1015.4
20240712083013 74 192 0.0 3.0 0.00 0.00 0.00 78 1015.5
20240712081506 74 192 1.0 3.0 0.00 0.00 0.00 78 1015.6
20240712080038 74 193 1.0 2.0 0.00 0.00 0.00 77 1015.5
20240712074604 74 193 0.0 0.0 0.00 0.00 0.00 77 1015.5
20240712073041 74 193 0.0 1.0 0.00 0.00 0.00 77 1015.5
20240712071517 74 193 0.0 1.0 0.00 0.00 0.00 76 1015.4
20240712070054 74 193 0.0 2.0 0.00 0.00 0.00 76 1015.4
20240712064515 74 193 1.0 3.0 0.00 0.00 0.00 75 1015.4
20240712063039 74 194 2.0 4.0 0.00 0.00 0.00 75 1015.5
20240712061552 75 186 1.0 4.0 0.00 0.00 0.00 74 1015.7
20240712060037 75 148 1.0 3.0 0.00 0.00 0.00 74 1015.7
20240712054547 75 145 1.0 2.0 0.00 0.00 0.00 73 1015.8
20240712053045 76 145 0.0 1.0 0.00 0.00 0.00 73 1016.0
20240712051531 76 145 0.0 2.0 0.00 0.00 0.00 72 1016.1
20240712050002 76 145 0.0 3.0 0.00 0.00 0.00 72 1016.0
20240712044545 76 138 0.0 2.0 0.00 0.00 0.00 71 1016.0
20240712043031 77 138 0.0 2.0 0.00 0.00 0.00 70 1016.1
20240712041505 77 138 1.0 4.0 0.00 0.00 0.00 70 1016.1
20240712040044 77 137 0.0 3.0 0.00 0.00 0.00 69 1016.1
20240712034540 78 138 2.0 3.0 0.00 0.00 0.00 69 1016.0
20240712033019 78 136 0.0 3.0 0.00 0.00 0.00 68 1015.8
20240712031504 79 141 1.0 4.0 0.00 0.00 0.00 68 1015.7
20240712030020 79 132 1.0 4.0 0.00 0.00 0.00 67 1015.6
20240712024528 80 138 2.0 5.0 0.00 0.00 0.00 66 1015.4
20240712023022 80 140 3.0 7.0 0.00 0.00 0.00 66 1015.4
20240712021604 81 153 2.0 7.0 0.00 0.00 0.00 65 1015.3
20240712020034 82 123 3.0 8.0 0.00 0.00 0.00 64 1015.1
20240712014510 83 203 2.0 7.0 0.00 0.00 0.00 64 1015.0
20240712013045 84 153 3.0 7.0 0.00 0.00 0.00 63 1015.0
20240712011520 84 140 3.0 11.0 0.00 0.00 0.00 62 1014.8
20240712010111 85 121 5.0 13.0 0.00 0.00 0.00 62 1014.7
20240712004523 86 152 3.0 11.0 0.00 0.00 0.00 61 1014.7
20240712003010 87 177 4.0 11.0 0.00 0.00 0.00 60 1014.5
20240712001550 88 194 4.0 11.0 0.00 0.00 0.00 59 1014.7
20240712000039 88 142 6.0 13.0 0.00 0.00 0.00 59 1014.6
20240711234553 89 191 7.0 15.0 0.00 0.00 0.00 58 1014.5
20240711233029 89 84 2.0 8.0 0.00 0.00 0.00 58 1014.3
20240711231615 89 52 3.0 6.0 0.00 0.00 0.00 58 1014.3
20240711230028 90 80 2.0 8.0 0.00 0.00 0.00 59 1014.2
20240711224617 91 54 4.0 10.0 0.00 0.00 0.00 59 1014.3
20240711223056 91 94 5.0 9.0 0.00 0.00 0.00 60 1014.5
20240711221528 91 72 7.0 12.0 0.00 0.00 0.00 61 1014.5
20240711220104 91 51 4.0 9.0 0.00 0.00 0.00 61 1014.5
20240711214544 91 66 7.0 11.0 0.00 0.00 0.00 62 1014.7
20240711213027 91 86 4.0 9.0 0.00 0.00 0.00 63 1014.7
20240711211521 90 96 5.0 8.0 0.00 0.00 0.00 63 1014.7
20240711210005 91 85 3.0 7.0 0.00 0.00 0.00 64 1014.7
20240711204546 91 55 8.0 12.0 0.00 0.00 0.00 65 1014.8
20240711203021 90 81 4.0 11.0 0.00 0.00 0.00 66 1015.0
20240711201507 90 53 3.0 10.0 0.00 0.00 0.00 67 1015.2
20240711200057 90 58 2.0 10.0 0.00 0.00 0.00 68 1015.3
20240711194510 90 57 4.0 10.0 0.00 0.00 0.00 69 1015.3
20240711193047 89 94 5.0 10.0 0.00 0.00 0.00 70 1015.5
20240711191528 89 55 4.0 12.0 0.00 0.00 0.00 71 1015.6
20240711190028 89 38 4.0 9.0 0.00 0.00 0.00 71 1015.8
20240711184533 89 144 6.0 10.0 0.00 0.00 0.00 73 1015.9
20240711183059 88 69 3.0 8.0 0.00 0.00 0.00 74 1016.0
20240711181525 88 49 1.0 9.0 0.00 0.00 0.00 75 1016.2
20240711180024 88 69 4.0 11.0 0.00 0.00 0.00 76 1016.3
20240711174604 87 53 3.0 6.0 0.00 0.00 0.00 77 1016.4
20240711173054 87 112 5.0 9.0 0.00 0.00 0.00 78 1016.3
20240711171500 87 119 1.0 4.0 0.00 0.00 0.00 79 1016.5
20240711170050 87 105 1.0 6.0 0.00 0.00 0.00 80 1016.4
20240711164550 86 57 3.0 6.0 0.00 0.00 0.00 81 1016.6
20240711163050 86 300 1.0 5.0 0.00 0.00 0.00 81 1016.6
20240711161553 86 124 3.0 7.0 0.00 0.00 0.00 82 1016.6
20240711160033 86 36 1.0 5.0 0.00 0.00 0.00 83 1016.6
20240711154526 85 54 1.0 5.0 0.00 0.00 0.00 83 1016.6
20240711153019 85 62 0.0 6.0 0.00 0.00 0.00 84 1016.7
20240711151527 84 55 2.0 5.0 0.00 0.00 0.00 84 1016.7
20240711150102 84 310 2.0 6.0 0.00 0.00 0.00 84 1016.6
20240711144526 83 345 4.0 8.0 0.00 0.00 0.00 85 1016.6
20240711143004 82 355 2.0 5.0 0.00 0.00 0.00 84 1016.6
20240711141527 81 328 3.0 8.0 0.00 0.00 0.00 84 1016.6
20240711140052 80 336 2.0 6.0 0.00 0.00 0.00 84 1016.4
20240711134514 78 337 2.0 4.0 0.00 0.00 0.00 84 1016.4
20240711133048 77 308 3.0 4.0 0.00 0.00 0.00 83 1016.4
20240711131535 76 344 3.0 5.0 0.00 0.00 0.00 83 1016.5
20240711130039 75 331 1.0 3.0 0.00 0.00 0.00 83 1016.3
20240711124529 74 329 2.0 4.0 0.00 0.00 0.00 82 1016.3
20240711123005 73 226 2.0 3.0 0.00 0.00 0.00 82 1016.1
20240711121539 72 223 1.0 3.0 0.00 0.00 0.00 82 1016.0